Time;durP1;ratioP1;P1;durP2;ratioP2;P2;SDS_P1;SDS_P2;PMS_P1;PMS_P2;Temp;Humidity;BMP_temperature;BMP_pressure;BME280_temperature;BME280_humidity;BME280_pressure;Samples;Min_cycle;Max_cycle;Signal;HPM_P1;HPM_P2
2022/07/31 00:02:16;;;;;;;6.90;6.60;;;;;;;-143.83;100.00;62900.06;5114903;27;20020;-65
2022/07/31 00:04:41;;;;;;;7.03;6.72;;;;;;;-143.83;100.00;62900.06;5119986;27;20036;-64
2022/07/31 00:07:07;;;;;;;6.90;6.60;;;;;;;-143.83;100.00;62900.06;5113876;27;20094;-65
2022/07/31 00:09:32;;;;;;;6.60;6.30;;;;;;;-143.83;100.00;62900.06;5114538;28;20092;-64
2022/07/31 00:11:58;;;;;;;6.60;6.30;;;;;;;-143.83;100.00;62900.06;5114415;28;20375;-64
2022/07/31 00:14:23;;;;;;;6.70;6.40;;;;;;;-143.83;100.00;62900.06;5114172;28;20475;-64
2022/07/31 00:16:49;;;;;;;6.70;6.40;;;;;;;-143.83;100.00;62900.06;5111595;28;20055;-64
2022/07/31 00:19:16;;;;;;;6.85;6.55;;;;;;;-143.83;100.00;62900.06;5114091;28;20481;-64
2022/07/31 00:21:42;;;;;;;6.65;6.35;;;;;;;-143.83;100.00;62900.06;5113842;28;20072;-64
2022/07/31 00:24:07;;;;;;;6.70;6.40;;;;;;;-143.83;100.00;62900.06;5113816;27;20031;-64
2022/07/31 00:26:33;;;;;;;6.72;6.43;;;;;;;-143.83;100.00;62900.06;5111626;28;20038;-64
2022/07/31 00:28:59;;;;;;;6.72;6.43;;;;;;;-143.83;100.00;62900.06;5113657;28;20495;-65
2022/07/31 00:31:24;;;;;;;6.75;6.45;;;;;;;-143.83;100.00;62900.06;5113709;28;20027;-65
2022/07/31 00:33:50;;;;;;;6.60;6.30;;;;;;;-143.83;100.00;62900.06;5113433;28;20390;-64
2022/07/31 00:36:15;;;;;;;6.78;6.47;;;;;;;-143.83;100.00;62900.06;5104950;28;20114;-65
2022/07/31 00:38:41;;;;;;;6.70;6.40;;;;;;;-143.83;100.00;62900.06;5113478;28;20028;-65
2022/07/31 00:41:06;;;;;;;6.88;6.57;;;;;;;-143.83;100.00;62900.06;5119252;27;20015;-65
2022/07/31 00:43:32;;;;;;;6.78;6.47;;;;;;;-143.83;100.00;62900.06;5113445;28;20043;-65
2022/07/31 00:45:58;;;;;;;6.80;6.50;;;;;;;-143.83;100.00;62900.06;5099465;28;20028;-65
2022/07/31 00:48:24;;;;;;;6.85;6.55;;;;;;;-143.83;100.00;62900.06;5099763;28;20475;-65
2022/07/31 00:50:49;;;;;;;6.90;6.60;;;;;;;-143.83;100.00;62900.06;5112037;28;20034;-65
2022/07/31 00:53:15;;;;;;;7.00;6.70;;;;;;;-143.83;100.00;62900.06;5112830;28;20106;-64
2022/07/31 00:55:41;;;;;;;6.70;6.40;;;;;;;-143.83;100.00;62900.06;5113187;28;20019;-64
2022/07/31 00:58:06;;;;;;;7.00;6.70;;;;;;;-143.83;100.00;62900.06;5112866;27;20028;-63
2022/07/31 01:00:32;;;;;;;6.80;6.50;;;;;;;-143.83;100.00;62900.06;5122603;27;20019;-64
2022/07/31 01:02:57;;;;;;;6.78;6.47;;;;;;;-143.83;100.00;62900.06;5108034;28;20032;-65
2022/07/31 01:05:23;;;;;;;6.90;6.60;;;;;;;-143.83;100.00;62900.06;5104932;28;20420;-64
2022/07/31 01:07:49;;;;;;;6.85;6.55;;;;;;;-143.83;100.00;62900.06;5112679;28;20027;-65
2022/07/31 01:10:44;;;;;;;6.85;6.55;;;;;;;-143.83;100.00;62900.06;5101422;28;20039;-64
2022/07/31 01:13:19;;;;;;;6.90;6.60;;;;;;;-143.83;100.00;62900.06;5108868;28;20047;-65
2022/07/31 01:15:46;;;;;;;6.60;6.30;;;;;;;-143.83;100.00;62900.06;5113331;27;20107;-63
2022/07/31 01:18:13;;;;;;;6.53;6.22;;;;;;;-143.83;100.00;62900.06;5111894;28;20027;-64
2022/07/31 01:20:41;;;;;;;6.70;6.40;;;;;;;-143.83;100.00;62900.06;5112969;28;20080;-64
2022/07/31 01:23:19;;;;;;;6.70;6.40;;;;;;;-143.83;100.00;62900.06;5103619;28;20387;-64
2022/07/31 01:26:00;;;;;;;6.57;6.28;;;;;;;-143.83;100.00;62900.06;5107069;28;20389;-64
2022/07/31 01:28:29;;;;;;;6.78;6.47;;;;;;;-143.83;100.00;62900.06;5112929;28;20023;-64
2022/07/31 01:31:05;;;;;;;6.53;6.22;;;;;;;-143.83;100.00;62900.06;5111751;28;20043;-65
2022/07/31 01:33:35;;;;;;;6.60;6.30;;;;;;;-143.83;100.00;62900.06;5112076;27;20117;-64
2022/07/31 01:36:15;;;;;;;7.10;6.80;;;;;;;-143.83;100.00;62900.06;5114030;27;20122;-64
2022/07/31 01:38:44;;;;;;;6.80;6.50;;;;;;;-143.83;100.00;62900.06;5122964;27;20020;-64
2022/07/31 01:41:12;;;;;;;6.75;6.45;;;;;;;-143.83;100.00;62900.06;5112323;28;20076;-65
2022/07/31 01:43:45;;;;;;;6.70;6.40;;;;;;;-143.83;100.00;62900.06;5112466;28;20057;-64
2022/07/31 01:46:14;;;;;;;6.60;6.30;;;;;;;-143.83;100.00;62900.06;5112543;28;20023;-64
2022/07/31 01:48:41;;;;;;;6.78;6.47;;;;;;;-143.83;100.00;62900.06;5110515;27;20119;-64
2022/07/31 01:51:09;;;;;;;6.68;6.38;;;;;;;-143.83;100.00;62900.06;5112252;28;20471;-64
2022/07/31 01:53:37;;;;;;;6.63;6.32;;;;;;;-143.83;100.00;62900.06;5112200;28;20028;-64
2022/07/31 01:56:05;;;;;;;6.90;6.60;;;;;;;-143.83;100.00;62900.06;5122870;27;20031;-64
2022/07/31 01:58:37;;;;;;;6.75;6.45;;;;;;;-143.83;100.00;62900.06;5111930;28;20019;-64
2022/07/31 02:01:06;;;;;;;6.78;6.47;;;;;;;-143.83;100.00;62900.06;5112399;28;20034;-65
2022/07/31 02:03:33;;;;;;;6.68;6.38;;;;;;;-143.83;100.00;62900.06;5111960;28;20052;-64
2022/07/31 02:06:00;;;;;;;6.55;6.25;;;;;;;-143.83;100.00;62900.06;5111918;28;20115;-65
2022/07/31 02:08:28;;;;;;;6.80;6.50;;;;;;;-143.83;100.00;62900.06;5111033;28;20026;-65
2022/07/31 02:10:54;;;;;;;6.70;6.40;;;;;;;-143.83;100.00;62900.06;5112039;28;20027;-63
2022/07/31 02:13:22;;;;;;;7.10;6.80;;;;;;;-143.83;100.00;62900.06;5112031;28;20429;-63
2022/07/31 02:15:49;;;;;;;6.90;6.60;;;;;;;-143.83;100.00;62900.06;5111952;28;20055;-63
2022/07/31 02:18:17;;;;;;;6.85;6.55;;;;;;;-143.83;100.00;62900.06;5109826;28;20439;-64
2022/07/31 02:20:45;;;;;;;6.90;6.60;;;;;;;-143.83;100.00;62900.06;5111071;28;20035;-64
2022/07/31 02:23:10;;;;;;;6.60;6.30;;;;;;;-143.83;100.00;62900.06;5111686;28;20114;-64
2022/07/31 02:25:38;;;;;;;6.80;6.50;;;;;;;-143.83;100.00;62900.06;5112008;28;20514;-64
2022/07/31 02:28:10;;;;;;;6.70;6.40;;;;;;;-143.83;100.00;62900.06;5112024;28;20098;-64
2022/07/31 02:30:39;;;;;;;6.57;6.28;;;;;;;-143.83;100.00;62900.06;5111836;28;20112;-63
2022/07/31 02:33:08;;;;;;;6.60;6.30;;;;;;;-143.83;100.00;62900.06;5111629;28;20045;-64
2022/07/31 02:35:34;;;;;;;6.90;6.60;;;;;;;-143.83;100.00;62900.06;5111709;28;20023;-64
2022/07/31 02:38:01;;;;;;;6.60;6.30;;;;;;;-143.83;100.00;62900.06;5111618;28;20030;-64
2022/07/31 02:40:27;;;;;;;6.65;6.35;;;;;;;-143.83;100.00;62900.06;5102784;27;20031;-64
2022/07/31 02:42:53;;;;;;;6.50;6.20;;;;;;;-143.83;100.00;62900.06;5112067;28;20107;-64
2022/07/31 02:45:21;;;;;;;6.90;6.60;;;;;;;-143.83;100.00;62900.06;5115902;28;20046;-64
2022/07/31 02:47:47;;;;;;;6.60;6.30;;;;;;;-143.83;100.00;62900.06;5115707;28;20016;-64
2022/07/31 02:50:15;;;;;;;6.60;6.30;;;;;;;-143.83;100.00;62900.06;5115503;28;20027;-63
2022/07/31 02:52:42;;;;;;;6.60;6.30;;;;;;;-143.83;100.00;62900.06;5119683;27;20038;-63
2022/07/31 02:55:09;;;;;;;6.75;6.45;;;;;;;-143.83;100.00;62900.06;5115827;28;20386;-64
2022/07/31 02:57:34;;;;;;;6.85;6.55;;;;;;;-143.83;100.00;62900.06;5115189;27;20020;-64
2022/07/31 03:00:00;;;;;;;6.90;6.60;;;;;;;-143.83;100.00;62900.06;5115446;28;20020;-64
2022/07/31 03:02:25;;;;;;;6.70;6.40;;;;;;;-143.83;100.00;62900.06;5102902;27;20028;-65
2022/07/31 03:04:51;;;;;;;6.80;6.50;;;;;;;-143.83;100.00;62900.06;5114223;28;20022;-65
2022/07/31 03:07:16;;;;;;;6.75;6.45;;;;;;;-143.83;100.00;62900.06;5115214;27;20055;-65
2022/07/31 03:09:42;;;;;;;6.72;6.43;;;;;;;-143.83;100.00;62900.06;5115214;28;20028;-64
2022/07/31 03:12:08;;;;;;;6.68;6.38;;;;;;;-143.83;100.00;62900.06;5113080;28;20502;-63
2022/07/31 03:14:34;;;;;;;6.68;6.38;;;;;;;-143.83;100.00;62900.06;5113845;27;20041;-64
2022/07/31 03:17:00;;;;;;;6.80;6.50;;;;;;;-143.83;100.00;62900.06;5115325;28;20140;-64
2022/07/31 03:19:27;;;;;;;6.78;6.47;;;;;;;-143.83;100.00;62900.06;5114176;28;20088;-64
2022/07/31 03:21:53;;;;;;;6.60;6.30;;;;;;;-143.83;100.00;62900.06;5115298;28;20024;-64
2022/07/31 03:24:21;;;;;;;6.88;6.57;;;;;;;-143.83;100.00;62900.06;5114754;28;20043;-65
2022/07/31 03:26:46;;;;;;;6.78;6.47;;;;;;;-143.83;100.00;62900.06;5115177;28;20051;-64
2022/07/31 03:29:12;;;;;;;6.90;6.60;;;;;;;-143.83;100.00;62900.06;5115054;28;20031;-64
2022/07/31 03:31:37;;;;;;;6.70;6.40;;;;;;;-143.83;100.00;62900.06;5114717;27;20031;-64
2022/07/31 03:34:03;;;;;;;6.93;6.63;;;;;;;-143.83;100.00;62900.06;5107755;28;20024;-64
2022/07/31 03:36:30;;;;;;;6.70;6.40;;;;;;;-143.83;100.00;62900.06;5114322;28;20031;-63
2022/07/31 03:38:56;;;;;;;6.90;6.60;;;;;;;-143.83;100.00;62900.06;5114728;28;20031;-64
2022/07/31 03:41:21;;;;;;;6.70;6.40;;;;;;;-143.83;100.00;62900.06;5114605;28;20023;-64
2022/07/31 03:43:49;;;;;;;6.90;6.60;;;;;;;-143.83;100.00;62900.06;5114701;28;20450;-63
2022/07/31 03:46:18;;;;;;;6.90;6.60;;;;;;;-143.83;100.00;62900.06;5114559;27;20032;-64
2022/07/31 03:48:44;;;;;;;6.90;6.60;;;;;;;-143.83;100.00;62900.06;5120762;27;20398;-63
2022/07/31 03:51:10;;;;;;;6.90;6.60;;;;;;;-143.83;100.00;62900.06;5113995;28;20027;-64
2022/07/31 03:53:36;;;;;;;7.10;6.80;;;;;;;-143.83;100.00;62900.06;5112841;28;20027;-64
2022/07/31 03:56:04;;;;;;;7.10;6.80;;;;;;;-143.83;100.00;62900.06;5113943;28;20106;-63
2022/07/31 03:58:30;;;;;;;7.10;6.80;;;;;;;-143.83;100.00;62900.06;5114102;28;20463;-63
2022/07/31 04:00:56;;;;;;;6.80;6.50;;;;;;;-143.83;100.00;62900.06;5114331;27;20027;-65
2022/07/31 04:03:21;;;;;;;7.00;6.70;;;;;;;-143.83;100.00;62900.06;5113067;27;20051;-65
2022/07/31 04:05:47;;;;;;;6.90;6.60;;;;;;;-143.83;100.00;62900.06;5108849;27;20066;-66
2022/07/31 04:08:14;;;;;;;7.00;6.70;;;;;;;-143.83;100.00;62900.06;5102067;28;20020;-64
2022/07/31 04:10:40;;;;;;;6.50;6.20;;;;;;;-143.83;100.00;62900.06;5109459;28;20473;-64
2022/07/31 04:13:06;;;;;;;6.63;6.32;;;;;;;-143.83;100.00;62900.06;5114124;28;20053;-64
2022/07/31 04:15:32;;;;;;;6.85;6.55;;;;;;;-143.83;100.00;62900.06;5113902;28;20031;-64
2022/07/31 04:17:57;;;;;;;6.90;6.60;;;;;;;-143.83;100.00;62900.06;5114012;28;20032;-65
2022/07/31 04:20:23;;;;;;;6.90;6.60;;;;;;;-143.83;100.00;62900.06;5112949;28;20119;-64
2022/07/31 04:22:49;;;;;;;6.60;6.30;;;;;;;-143.83;100.00;62900.06;5114735;27;20030;-63
2022/07/31 04:25:15;;;;;;;6.90;6.60;;;;;;;-143.83;100.00;62900.06;5113723;28;20102;-64
2022/07/31 04:27:41;;;;;;;6.72;6.43;;;;;;;-143.83;100.00;62900.06;5114010;28;20019;-64
2022/07/31 04:30:07;;;;;;;6.60;6.30;;;;;;;-143.83;100.00;62900.06;5113824;28;20038;-64
2022/07/31 04:32:34;;;;;;;6.80;6.50;;;;;;;-143.83;100.00;62900.06;5113866;28;20110;-64
2022/07/31 04:35:00;;;;;;;7.10;6.80;;;;;;;-143.83;100.00;62900.06;5113769;28;20020;-64
2022/07/31 04:37:25;;;;;;;7.00;6.70;;;;;;;-143.83;100.00;62900.06;5112588;28;20360;-64
2022/07/31 04:39:51;;;;;;;6.72;6.43;;;;;;;-143.83;100.00;62900.06;5114159;27;20360;-64
2022/07/31 04:42:16;;;;;;;7.10;6.80;;;;;;;-143.83;100.00;62900.06;5113383;28;20415;-65
2022/07/31 04:44:43;;;;;;;6.90;6.60;;;;;;;-143.83;100.00;62900.06;5116882;27;20035;-64
2022/07/31 04:47:09;;;;;;;7.10;6.80;;;;;;;-143.83;100.00;62900.06;5112066;28;20436;-64
2022/07/31 04:49:35;;;;;;;6.80;6.50;;;;;;;-143.83;100.00;62900.06;5113535;28;20023;-64
2022/07/31 04:52:00;;;;;;;6.90;6.60;;;;;;;-143.83;100.00;62900.06;5113111;28;20039;-64
2022/07/31 04:54:28;;;;;;;7.10;6.80;;;;;;;-143.83;100.00;62900.06;5112228;28;20030;-64
2022/07/31 04:56:54;;;;;;;6.85;6.55;;;;;;;-143.83;100.00;62900.06;5113808;27;20391;-64
2022/07/31 04:59:21;;;;;;;6.70;6.40;;;;;;;-143.83;100.00;62900.06;5113005;28;20019;-64
2022/07/31 05:01:47;;;;;;;6.70;6.40;;;;;;;-143.83;100.00;62900.06;5113103;28;20027;-64
2022/07/31 05:04:13;;;;;;;6.93;6.63;;;;;;;-143.83;100.00;62900.06;5112548;28;20024;-65
2022/07/31 05:06:41;;;;;;;7.07;6.78;;;;;;;-143.83;100.00;62900.06;5110481;28;20077;-64
2022/07/31 05:09:09;;;;;;;6.90;6.60;;;;;;;-143.83;100.00;62900.06;5113065;28;20102;-64
2022/07/31 05:11:36;;;;;;;6.78;6.47;;;;;;;-143.83;100.00;62900.06;5110387;28;20059;-64
2022/07/31 05:14:03;;;;;;;6.57;6.28;;;;;;;-143.83;100.00;62900.06;5113665;27;20028;-64
2022/07/31 05:16:29;;;;;;;6.90;6.60;;;;;;;-143.83;100.00;62900.06;5112866;28;20389;-64
2022/07/31 05:18:56;;;;;;;6.55;6.25;;;;;;;-143.83;100.00;62900.06;5111646;28;20395;-64
2022/07/31 05:21:22;;;;;;;6.70;6.40;;;;;;;-143.83;100.00;62900.06;5112812;28;20072;-64
2022/07/31 05:23:49;;;;;;;6.53;6.22;;;;;;;-143.83;100.00;62900.06;5108937;28;20049;-65
2022/07/31 05:26:15;;;;;;;6.70;6.40;;;;;;;-143.83;100.00;62900.06;5111430;28;20035;-64
2022/07/31 05:28:41;;;;;;;6.75;6.45;;;;;;;-143.83;100.00;62900.06;5111723;28;20068;-64
2022/07/31 05:31:08;;;;;;;6.80;6.50;;;;;;;-143.83;100.00;62900.06;5113234;27;20094;-64
2022/07/31 05:33:33;;;;;;;6.85;6.55;;;;;;;-143.83;100.00;62900.06;5112609;28;20786;-65
2022/07/31 05:36:00;;;;;;;6.55;6.25;;;;;;;-143.83;100.00;62900.06;5112788;28;20157;-64
2022/07/31 05:38:26;;;;;;;6.80;6.50;;;;;;;-143.83;100.00;62900.06;5112825;28;20383;-64
2022/07/31 05:40:52;;;;;;;6.80;6.50;;;;;;;-143.83;100.00;62900.06;5122296;27;20045;-64
2022/07/31 05:43:17;;;;;;;6.80;6.50;;;;;;;-143.83;100.00;62900.06;5112055;28;20044;-64
2022/07/31 05:45:43;;;;;;;6.70;6.40;;;;;;;-143.83;100.00;62900.06;5111654;28;20034;-65
2022/07/31 05:48:09;;;;;;;6.80;6.50;;;;;;;-143.83;100.00;62900.06;5111939;28;20478;-63
2022/07/31 05:50:34;;;;;;;6.85;6.55;;;;;;;-143.83;100.00;62900.06;5113190;27;20392;-64
2022/07/31 05:53:00;;;;;;;6.97;6.68;;;;;;;-143.83;100.00;62900.06;5113812;27;20072;-64
2022/07/31 05:55:26;;;;;;;6.80;6.50;;;;;;;-143.83;100.00;62900.06;5120632;27;20036;-65
2022/07/31 05:57:52;;;;;;;6.75;6.45;;;;;;;-143.83;100.00;62900.06;5112137;28;20031;-64
2022/07/31 06:00:18;;;;;;;7.00;6.70;;;;;;;-143.83;100.00;62900.06;5120790;27;20111;-66
2022/07/31 06:02:44;;;;;;;6.60;6.30;;;;;;;-143.83;100.00;62900.06;5111206;27;20123;-65
2022/07/31 06:05:09;;;;;;;6.70;6.40;;;;;;;-143.83;100.00;62900.06;5111444;28;20062;-64
2022/07/31 06:07:35;;;;;;;6.60;6.30;;;;;;;-143.83;100.00;62900.06;5120378;27;20550;-65
2022/07/31 06:10:01;;;;;;;6.80;6.50;;;;;;;-143.83;100.00;62900.06;5114189;27;20467;-64
2022/07/31 06:12:26;;;;;;;6.72;6.43;;;;;;;-143.83;100.00;62900.06;5112314;28;20467;-65
2022/07/31 06:14:52;;;;;;;7.10;6.80;;;;;;;-143.83;100.00;62900.06;5109926;28;20525;-65
2022/07/31 06:17:17;;;;;;;6.75;6.45;;;;;;;-143.83;100.00;62900.06;5114202;28;20032;-65
2022/07/31 06:19:43;;;;;;;6.70;6.40;;;;;;;-143.83;100.00;62900.06;5107811;28;20830;-64
2022/07/31 06:22:08;;;;;;;6.68;6.38;;;;;;;-143.83;100.00;62900.06;5116266;28;20038;-66
2022/07/31 06:24:34;;;;;;;6.80;6.50;;;;;;;-143.83;100.00;62900.06;5109664;28;20071;-64
2022/07/31 06:27:00;;;;;;;6.68;6.38;;;;;;;-143.83;100.00;62900.06;5101855;28;20031;-64
2022/07/31 06:29:27;;;;;;;7.20;6.90;;;;;;;-143.83;100.00;62900.06;5121499;27;20016;-64
2022/07/31 06:31:55;;;;;;;6.90;6.60;;;;;;;-143.83;100.00;62900.06;5114135;28;20015;-65
2022/07/31 06:34:22;;;;;;;7.13;6.82;;;;;;;-143.83;100.00;62900.06;5111756;28;20035;-64
2022/07/31 06:36:48;;;;;;;6.90;6.60;;;;;;;-143.83;100.00;62900.06;5112362;28;20024;-65
2022/07/31 06:39:14;;;;;;;6.78;6.47;;;;;;;-143.83;100.00;62900.06;5111085;28;20043;-64
2022/07/31 06:41:46;;;;;;;6.80;6.50;;;;;;;-143.83;100.00;62900.06;5111578;28;20048;-64
2022/07/31 06:44:15;;;;;;;7.15;6.85;;;;;;;-143.83;100.00;62900.06;5111227;28;20145;-65
2022/07/31 06:46:41;;;;;;;7.30;7.00;;;;;;;-143.83;100.00;62900.06;5122383;27;20035;-64
2022/07/31 06:49:07;;;;;;;7.00;6.70;;;;;;;-143.83;100.00;62900.06;5115725;28;20535;-65
2022/07/31 06:51:33;;;;;;;7.13;6.82;;;;;;;-143.83;100.00;62900.06;5114906;28;20038;-65
2022/07/31 06:54:00;;;;;;;7.32;7.03;;;;;;;-143.83;100.00;62900.06;5107094;28;20076;-64
2022/07/31 06:56:26;;;;;;;7.20;6.90;;;;;;;-143.83;100.00;62900.06;5109003;28;20031;-64
2022/07/31 06:58:52;;;;;;;6.90;6.60;;;;;;;-143.83;100.00;62900.06;5111322;27;20041;-64
2022/07/31 07:01:17;;;;;;;7.00;6.70;;;;;;;-143.83;100.00;62900.06;5114735;28;20034;-64
2022/07/31 07:03:43;;;;;;;6.97;6.68;;;;;;;-143.83;100.00;62900.06;5108003;28;20036;-64
2022/07/31 07:06:08;;;;;;;6.70;6.40;;;;;;;-143.83;100.00;62900.06;5110575;28;20050;-65
2022/07/31 07:08:34;;;;;;;6.90;6.60;;;;;;;-143.83;100.00;62900.06;5102996;28;20027;-63
2022/07/31 07:10:59;;;;;;;7.10;6.80;;;;;;;-143.83;100.00;62900.06;5110248;28;20042;-65
2022/07/31 07:13:25;;;;;;;6.90;6.60;;;;;;;-143.83;100.00;62900.06;5111345;28;20028;-63
2022/07/31 07:15:51;;;;;;;7.07;6.78;;;;;;;-143.83;100.00;62900.06;5110944;28;20089;-64
2022/07/31 07:18:17;;;;;;;6.85;6.55;;;;;;;-143.83;100.00;62900.06;5111189;28;20019;-64
2022/07/31 07:20:42;;;;;;;6.90;6.60;;;;;;;-143.83;100.00;62900.06;5110181;28;20471;-65
2022/07/31 07:23:08;;;;;;;6.90;6.60;;;;;;;-143.83;100.00;62900.06;5111515;28;20026;-64
2022/07/31 07:25:33;;;;;;;7.30;7.00;;;;;;;-143.83;100.00;62900.06;5108987;28;20522;-64
2022/07/31 07:27:59;;;;;;;6.90;6.60;;;;;;;-143.83;100.00;62900.06;5108748;28;20028;-64
2022/07/31 07:30:27;;;;;;;6.80;6.50;;;;;;;-143.83;100.00;62900.06;5114910;27;20142;-65
2022/07/31 07:32:53;;;;;;;6.72;6.43;;;;;;;-143.83;100.00;62900.06;5121286;27;20023;-65
2022/07/31 07:35:19;;;;;;;6.90;6.60;;;;;;;-143.83;100.00;62900.06;5121079;27;20035;-64
2022/07/31 07:37:44;;;;;;;6.90;6.60;;;;;;;-143.83;100.00;62900.06;5111685;28;20032;-64
2022/07/31 07:40:10;;;;;;;6.72;6.43;;;;;;;-143.83;100.00;62900.06;5114853;28;20028;-64
2022/07/31 07:42:36;;;;;;;6.90;6.60;;;;;;;-143.83;100.00;62900.06;5114593;28;20122;-64
2022/07/31 07:45:02;;;;;;;6.80;6.50;;;;;;;-143.83;100.00;62900.06;5113653;28;20497;-65
2022/07/31 07:47:28;;;;;;;7.32;7.03;;;;;;;-143.83;100.00;62900.06;5115221;27;20024;-66
2022/07/31 07:49:54;;;;;;;6.80;6.50;;;;;;;-143.83;100.00;62900.06;5114541;28;20034;-65
2022/07/31 07:52:19;;;;;;;6.70;6.40;;;;;;;-143.83;100.00;62900.06;5114486;28;20397;-64
2022/07/31 07:54:45;;;;;;;6.72;6.43;;;;;;;-143.83;100.00;62900.06;5114540;28;20055;-65
2022/07/31 07:57:21;;;;;;;6.78;6.47;;;;;;;-143.83;100.00;62900.06;5114641;28;20118;-64
2022/07/31 07:59:47;;;;;;;6.90;6.60;;;;;;;-143.83;100.00;62900.06;5114480;28;20024;-64
2022/07/31 08:02:13;;;;;;;6.80;6.50;;;;;;;-143.83;100.00;62900.06;5111343;27;20134;-64
2022/07/31 08:04:41;;;;;;;7.00;6.70;;;;;;;-143.83;100.00;62900.06;5111076;28;20032;-65
2022/07/31 08:07:07;;;;;;;6.90;6.60;;;;;;;-143.83;100.00;62900.06;5114115;28;20033;-64
2022/07/31 08:09:33;;;;;;;6.63;6.32;;;;;;;-143.83;100.00;62900.06;5112484;28;20028;-64
2022/07/31 08:11:59;;;;;;;7.30;7.00;;;;;;;-143.83;100.00;62900.06;5108528;27;20116;-69
2022/07/31 08:14:25;;;;;;;6.95;6.65;;;;;;;-143.83;100.00;62900.06;5106546;27;20044;-68
2022/07/31 08:16:51;;;;;;;6.60;6.30;;;;;;;-143.83;100.00;62900.06;5119230;27;20030;-68
2022/07/31 08:19:17;;;;;;;7.00;6.70;;;;;;;-143.83;100.00;62900.06;5110614;28;20032;-69
2022/07/31 08:21:44;;;;;;;7.00;6.70;;;;;;;-143.83;100.00;62900.06;5112310;28;20027;-68
2022/07/31 08:24:12;;;;;;;6.80;6.50;;;;;;;-143.83;100.00;62900.06;5106103;27;20027;-69
2022/07/31 08:29:23;;;;;;;7.00;6.70;;;;;;;-143.83;100.00;62900.06;5121051;27;20054;-69
2022/07/31 08:31:50;;;;;;;6.97;6.68;;;;;;;-143.83;100.00;62900.06;5101801;27;20517;-69
2022/07/31 08:34:16;;;;;;;7.00;6.70;;;;;;;-143.83;100.00;62900.06;5112454;28;20077;-69
2022/07/31 08:36:43;;;;;;;7.10;6.80;;;;;;;-143.83;100.00;62900.06;5113923;27;20142;-68
2022/07/31 08:39:09;;;;;;;6.75;6.45;;;;;;;-143.83;100.00;62900.06;5111788;28;20070;-69
2022/07/31 08:41:38;;;;;;;6.95;6.65;;;;;;;-143.83;100.00;62900.06;5109608;28;20059;-69
2022/07/31 08:44:08;;;;;;;6.78;6.47;;;;;;;-143.83;100.00;62900.06;5112281;28;20475;-69
2022/07/31 08:46:38;;;;;;;7.10;6.80;;;;;;;-143.83;100.00;62900.06;5112259;28;20197;-68
2022/07/31 08:49:05;;;;;;;7.00;6.70;;;;;;;-143.83;100.00;62900.06;5112401;28;20039;-68
2022/07/31 08:51:34;;;;;;;7.00;6.70;;;;;;;-143.83;100.00;62900.06;5112136;28;20034;-67
2022/07/31 08:54:04;;;;;;;7.18;6.88;;;;;;;-143.83;100.00;62900.06;5109952;27;20036;-70
2022/07/31 08:56:33;;;;;;;6.90;6.60;;;;;;;-143.83;100.00;62900.06;5105112;27;20031;-69
2022/07/31 08:58:58;;;;;;;6.90;6.60;;;;;;;-143.83;100.00;62900.06;5105366;27;20080;-68
2022/07/31 09:01:24;;;;;;;6.85;6.55;;;;;;;-143.83;100.00;62900.06;5110446;27;20043;-69
2022/07/31 09:03:49;;;;;;;6.90;6.60;;;;;;;-143.83;100.00;62900.06;5114657;27;20027;-68
2022/07/31 09:06:15;;;;;;;7.05;6.75;;;;;;;-143.83;100.00;62900.06;5115742;27;20070;-68
2022/07/31 09:08:40;;;;;;;6.68;6.38;;;;;;;-143.83;100.00;62900.06;5111037;27;20032;-68
2022/07/31 09:11:09;;;;;;;6.90;6.60;;;;;;;-143.83;100.00;62900.06;5110833;27;20082;-69
2022/07/31 09:13:34;;;;;;;6.70;6.40;;;;;;;-143.83;100.00;62900.06;5105139;28;20028;-70
2022/07/31 09:16:03;;;;;;;6.72;6.43;;;;;;;-143.83;100.00;62900.06;5103001;28;20032;-69
2022/07/31 09:18:29;;;;;;;6.75;6.45;;;;;;;-143.83;100.00;62900.06;5108061;28;20084;-68
2022/07/31 09:21:05;;;;;;;6.93;6.63;;;;;;;-143.83;100.00;62900.06;5111623;28;20044;-68
2022/07/31 09:23:32;;;;;;;6.90;6.60;;;;;;;-143.83;100.00;62900.06;5111654;28;20053;-69
2022/07/31 09:25:58;;;;;;;7.22;6.93;;;;;;;-143.83;100.00;62900.06;5111906;27;20024;-69
2022/07/31 09:28:36;;;;;;;7.03;6.72;;;;;;;-143.83;100.00;62900.06;5110969;27;20043;-69
2022/07/31 09:31:03;;;;;;;6.90;6.60;;;;;;;-143.83;100.00;62900.06;5109470;28;20403;-68
2022/07/31 09:33:29;;;;;;;7.07;6.78;;;;;;;-143.83;100.00;62900.06;5111135;28;20080;-69
2022/07/31 09:35:56;;;;;;;6.90;6.60;;;;;;;-143.83;100.00;62900.06;5111076;28;20127;-65
2022/07/31 09:38:30;;;;;;;7.00;6.70;;;;;;;-143.83;100.00;62900.06;5111141;28;20035;-64
2022/07/31 09:40:55;;;;;;;6.97;6.68;;;;;;;-143.83;100.00;62900.06;5111316;28;20053;-64
2022/07/31 09:43:24;;;;;;;7.00;6.70;;;;;;;-143.83;100.00;62900.06;5110266;28;20051;-67
2022/07/31 09:45:59;;;;;;;6.97;6.68;;;;;;;-143.83;100.00;62900.06;5105399;28;20050;-66
2022/07/31 09:48:25;;;;;;;6.88;6.57;;;;;;;-143.83;100.00;62900.06;5104856;28;20035;-65
2022/07/31 09:50:54;;;;;;;6.85;6.55;;;;;;;-143.83;100.00;62900.06;5107866;28;20035;-65
2022/07/31 09:53:20;;;;;;;6.72;6.43;;;;;;;-143.83;100.00;62900.06;5110930;28;20027;-66
2022/07/31 09:55:55;;;;;;;6.90;6.60;;;;;;;-143.83;100.00;62900.06;5108970;28;20102;-64
2022/07/31 09:58:21;;;;;;;;;;;;;;;-143.83;100.00;62900.06;5105343;28;20487;-63
2022/07/31 10:00:50;;;;;;;6.97;6.68;;;;;;;-143.83;100.00;62900.06;5095458;28;19911;-63
2022/07/31 10:03:18;;;;;;;7.03;6.72;;;;;;;-143.83;100.00;62900.06;5106940;28;20070;-64
2022/07/31 10:05:44;;;;;;;6.75;6.45;;;;;;;-143.83;100.00;62900.06;5105290;28;20073;-64
2022/07/31 10:08:12;;;;;;;6.80;6.50;;;;;;;-143.83;100.00;62900.06;5110191;28;20020;-63
2022/07/31 10:10:38;;;;;;;7.97;7.68;;;;;;;-143.83;100.00;62900.06;5107514;28;20023;-63
2022/07/31 10:13:07;;;;;;;7.40;7.10;;;;;;;-143.83;100.00;62900.06;5106684;28;20032;-64
2022/07/31 10:15:36;;;;;;;7.57;7.28;;;;;;;-143.83;100.00;62900.06;5107704;28;20034;-64
2022/07/31 10:18:02;;;;;;;7.30;7.00;;;;;;;-143.83;100.00;62900.06;5106358;28;20544;-64
2022/07/31 10:20:31;;;;;;;7.07;6.78;;;;;;;-143.83;100.00;62900.06;5108766;28;20082;-64
2022/07/31 10:23:18;;;;;;;7.53;7.22;;;;;;;-143.83;100.00;62900.06;5114477;28;20080;-64
2022/07/31 10:25:55;;;;;;;7.43;7.13;;;;;;;-143.83;100.00;62900.06;5098971;28;20131;-65
2022/07/31 10:28:21;;;;;;;7.10;6.80;;;;;;;-143.83;100.00;62900.06;5116011;28;20030;-63
2022/07/31 10:30:48;;;;;;;7.38;7.07;;;;;;;-143.83;100.00;62900.06;5117488;28;20050;-63
2022/07/31 10:33:14;;;;;;;7.43;7.13;;;;;;;-143.83;100.00;62900.06;5113169;28;20045;-64
2022/07/31 10:36:07;;;;;;;7.20;6.90;;;;;;;-143.83;100.00;62900.06;5108983;28;20035;-63
2022/07/31 10:38:51;;;;;;;7.32;7.03;;;;;;;-143.83;100.00;62900.06;5113452;28;20047;-62
2022/07/31 10:41:55;;;;;;;7.15;6.85;;;;;;;-143.83;100.00;62900.06;5098263;28;20039;-64
2022/07/31 10:44:26;;;;;;;7.25;6.95;;;;;;;-143.83;100.00;62900.06;5110884;28;20027;-64
2022/07/31 10:46:52;;;;;;;7.40;7.10;;;;;;;-143.83;100.00;62900.06;5116441;28;20062;-64
2022/07/31 10:49:17;;;;;;;7.50;7.20;;;;;;;-143.83;100.00;62900.06;5110917;28;20497;-64
2022/07/31 10:51:50;;;;;;;7.40;7.10;;;;;;;-143.83;100.00;62900.06;5101016;28;20024;-64
2022/07/31 10:54:16;;;;;;;7.43;7.13;;;;;;;-143.83;100.00;62900.06;5097491;28;20038;-67
2022/07/31 10:56:43;;;;;;;7.55;7.25;;;;;;;-143.83;100.00;62900.06;5100877;28;20024;-64
2022/07/31 10:59:10;;;;;;;7.50;7.20;;;;;;;-143.83;100.00;62900.06;5103838;28;20038;-63
2022/07/31 11:02:04;;;;;;;7.60;7.30;;;;;;;-143.83;100.00;62900.06;5109804;28;20501;-64
2022/07/31 11:04:31;;;;;;;7.30;7.00;;;;;;;-143.83;100.00;62900.06;5098290;28;20046;-63
2022/07/31 11:06:57;;;;;;;7.57;7.28;;;;;;;-143.83;100.00;62900.06;5110142;28;20023;-62
2022/07/31 11:09:25;;;;;;;7.32;7.03;;;;;;;-143.83;100.00;62900.06;5111466;27;20110;-63
2022/07/31 11:11:51;;;;;;;7.07;6.78;;;;;;;-143.83;100.00;62900.06;5102243;28;20024;-63
2022/07/31 11:14:17;;;;;;;7.63;7.32;;;;;;;-143.83;100.00;62900.06;5109562;28;20022;-64